createdAt,value
2023-05-09T00:00:02.971Z,14.00
2023-05-09T00:01:02.909Z,13.20
2023-05-09T00:02:02.964Z,12.40
2023-05-09T00:03:02.845Z,12.50
2023-05-09T00:04:02.876Z,12.30
2023-05-09T00:05:02.814Z,11.70
2023-05-09T00:06:02.811Z,26.10
2023-05-09T00:07:02.814Z,14.30
2023-05-09T00:08:02.808Z,15.90
2023-05-09T00:09:02.827Z,13.40
2023-05-09T00:10:02.778Z,10.50
2023-05-09T00:11:02.748Z,13.10
2023-05-09T00:12:02.744Z,12.80
2023-05-09T00:13:02.777Z,13.50
2023-05-09T00:14:02.799Z,12.30
2023-05-09T00:15:02.746Z,11.60
2023-05-09T00:16:02.776Z,12.20
2023-05-09T00:17:03.234Z,12.00
2023-05-09T00:18:02.741Z,12.20
2023-05-09T00:19:02.721Z,12.20
2023-05-09T00:20:02.703Z,12.20
2023-05-09T00:21:02.656Z,12.40
2023-05-09T00:22:02.647Z,12.80
2023-05-09T00:23:02.631Z,11.60
2023-05-09T00:24:02.647Z,13.30
2023-05-09T00:25:02.613Z,13.50
2023-05-09T00:26:02.619Z,13.00
2023-05-09T00:27:02.624Z,11.50
2023-05-09T00:28:02.568Z,11.10
2023-05-09T00:29:02.589Z,15.80
2023-05-09T00:30:02.611Z,11.10
2023-05-09T00:31:02.561Z,11.30
2023-05-09T00:32:02.566Z,11.40
2023-05-09T00:33:02.623Z,13.70
2023-05-09T00:34:02.534Z,11.50
2023-05-09T00:35:02.482Z,11.30
2023-05-09T00:36:02.579Z,13.20
2023-05-09T00:37:02.496Z,11.90
2023-05-09T00:38:02.492Z,11.40
2023-05-09T00:39:02.455Z,12.80
2023-05-09T00:40:02.521Z,11.60
2023-05-09T00:41:02.447Z,12.50
2023-05-09T00:42:02.537Z,12.50
2023-05-09T00:43:02.418Z,11.50
2023-05-09T00:44:02.399Z,13.70
2023-05-09T00:45:02.545Z,16.70
2023-05-09T00:46:02.462Z,13.10
2023-05-09T00:47:02.389Z,11.70
2023-05-09T00:48:02.391Z,14.80
2023-05-09T00:49:02.330Z,12.90
2023-05-09T00:50:02.378Z,12.30
2023-05-09T00:51:02.341Z,14.70
2023-05-09T00:52:02.319Z,13.20
2023-05-09T00:53:02.288Z,14.10
2023-05-09T00:54:02.301Z,13.50
2023-05-09T00:55:02.282Z,14.70
2023-05-09T00:56:02.253Z,16.10
2023-05-09T00:57:02.268Z,11.10
2023-05-09T00:58:02.273Z,12.50
2023-05-09T00:59:02.230Z,12.80
2023-05-09T01:00:02.247Z,11.50
2023-05-09T01:01:02.317Z,10.40
2023-05-09T01:02:02.254Z,13.10
2023-05-09T01:03:02.292Z,14.10
2023-05-09T01:04:02.195Z,14.60
2023-05-09T01:05:02.213Z,13.40
2023-05-09T01:06:02.168Z,11.50
2023-05-09T01:07:02.131Z,13.00
2023-05-09T01:08:02.141Z,13.10
2023-05-09T01:09:02.136Z,13.90
2023-05-09T01:10:02.184Z,12.90
2023-05-09T01:11:02.196Z,14.50
2023-05-09T01:12:02.109Z,14.70
2023-05-09T01:13:02.195Z,12.40
2023-05-09T01:14:02.179Z,15.10
2023-05-09T01:15:02.221Z,13.30
2023-05-09T01:16:02.149Z,12.10
2023-05-09T01:17:02.094Z,12.40
2023-05-09T01:18:02.126Z,14.60
2023-05-09T01:19:02.061Z,18.00
2023-05-09T01:20:02.127Z,16.50
2023-05-09T01:21:02.038Z,15.70
2023-05-09T01:22:02.000Z,13.90
2023-05-09T01:23:01.983Z,13.30
2023-05-09T01:24:02.052Z,14.80
2023-05-09T01:25:02.040Z,12.40
2023-05-09T01:26:01.953Z,13.90
2023-05-09T01:27:02.019Z,13.40
2023-05-09T01:28:01.941Z,13.80
2023-05-09T01:29:01.969Z,14.10
2023-05-09T01:30:01.952Z,14.10
2023-05-09T01:31:01.949Z,12.30
2023-05-09T01:32:01.954Z,13.50
2023-05-09T01:33:01.893Z,14.10
2023-05-09T01:34:01.885Z,14.40
2023-05-09T01:35:01.841Z,13.10
2023-05-09T01:36:01.871Z,16.00
2023-05-09T01:37:01.839Z,12.50
2023-05-09T01:38:01.860Z,12.90
2023-05-09T01:39:01.828Z,13.40
2023-05-09T01:40:01.826Z,12.90
2023-05-09T01:41:01.810Z,12.80
2023-05-09T01:42:01.788Z,15.40
2023-05-09T01:43:01.829Z,13.40
2023-05-09T01:44:02.020Z,16.70
2023-05-09T01:45:01.794Z,12.60
2023-05-09T01:46:01.783Z,13.80
2023-05-09T01:47:01.789Z,13.10
2023-05-09T01:48:01.870Z,12.20
2023-05-09T01:49:01.702Z,13.60
2023-05-09T01:50:01.682Z,13.80
2023-05-09T01:51:01.657Z,12.40
2023-05-09T01:52:01.700Z,12.70
2023-05-09T01:53:01.654Z,12.20
2023-05-09T01:54:01.743Z,12.80
2023-05-09T01:55:01.649Z,14.40
2023-05-09T01:56:01.621Z,12.50
2023-05-09T01:57:01.681Z,13.40
2023-05-09T01:58:01.634Z,13.50
2023-05-09T01:59:01.612Z,12.60
2023-05-09T02:00:01.606Z,16.50
2023-05-09T02:01:01.633Z,15.40
2023-05-09T02:02:01.594Z,15.50
2023-05-09T02:03:01.589Z,13.50
2023-05-09T02:04:01.561Z,10.90
2023-05-09T02:05:01.581Z,16.20
2023-05-09T02:06:01.580Z,11.80
2023-05-09T02:07:01.556Z,12.00
2023-05-09T02:08:01.489Z,11.70
2023-05-09T02:09:01.501Z,14.90
2023-05-09T02:10:01.505Z,13.10
2023-05-09T02:11:01.473Z,14.40
2023-05-09T02:12:01.462Z,14.00
2023-05-09T02:13:01.515Z,12.00
2023-05-09T02:14:01.422Z,14.90
2023-05-09T02:15:01.454Z,13.30
2023-05-09T02:16:01.458Z,12.70
2023-05-09T02:17:01.518Z,15.40
2023-05-09T02:18:01.465Z,14.10
2023-05-09T02:19:01.404Z,14.80
2023-05-09T02:20:01.468Z,14.90
2023-05-09T02:21:01.385Z,14.00
2023-05-09T02:22:01.352Z,15.80
2023-05-09T02:23:01.357Z,14.40
2023-05-09T02:24:01.358Z,14.20
2023-05-09T02:25:01.375Z,16.30
2023-05-09T02:26:01.303Z,14.50
2023-05-09T02:27:01.315Z,16.40
2023-05-09T02:28:01.341Z,15.60
2023-05-09T02:29:01.284Z,14.70
2023-05-09T02:30:01.305Z,13.50
2023-05-09T02:31:01.269Z,12.70
2023-05-09T02:32:01.253Z,13.80
2023-05-09T02:33:01.389Z,12.30
2023-05-09T02:34:01.224Z,14.80
2023-05-09T02:35:01.365Z,13.50
2023-05-09T02:36:01.211Z,15.00
2023-05-09T02:37:01.193Z,14.90
2023-05-09T02:38:01.246Z,13.10
2023-05-09T02:39:01.161Z,14.30
2023-05-09T02:40:01.160Z,13.10
2023-05-09T02:41:01.161Z,13.10
2023-05-09T02:42:01.171Z,13.80
2023-05-09T02:43:01.165Z,12.70
2023-05-09T02:44:01.176Z,13.80
2023-05-09T02:46:29.278Z,13.20
2023-05-09T02:52:30.495Z,16.90
2023-05-09T02:54:42.718Z,11.70
2023-05-09T02:55:43.701Z,12.80
2023-05-09T02:56:43.726Z,16.70
2023-05-09T02:57:43.711Z,13.10
2023-05-09T02:58:43.660Z,14.20
2023-05-09T02:59:43.673Z,13.20
2023-05-09T03:00:43.651Z,14.10
2023-05-09T03:01:43.682Z,10.90
2023-05-09T03:02:43.721Z,12.60
2023-05-09T03:03:43.677Z,14.30
2023-05-09T03:04:43.602Z,12.20
2023-05-09T03:05:43.620Z,15.90
2023-05-09T03:06:43.626Z,11.30
2023-05-09T03:07:43.581Z,13.80
2023-05-09T03:08:43.521Z,16.00
2023-05-09T03:09:43.615Z,14.00
2023-05-09T03:10:43.566Z,14.00
2023-05-09T03:11:43.712Z,13.50
2023-05-09T03:12:43.697Z,13.60
2023-05-09T03:13:43.458Z,12.60
2023-05-09T03:14:43.515Z,13.10
2023-05-09T03:15:43.506Z,16.30
2023-05-09T03:16:43.569Z,13.10
2023-05-09T03:17:43.508Z,14.20
2023-05-09T03:18:43.415Z,15.10
2023-05-09T03:19:43.480Z,12.40
2023-05-09T03:20:43.459Z,14.60
2023-05-09T03:21:43.438Z,12.60
2023-05-09T03:22:43.390Z,15.40
2023-05-09T03:23:43.340Z,12.10
2023-05-09T03:24:43.514Z,14.60
2023-05-09T03:25:43.401Z,19.50
2023-05-09T03:26:44.076Z,12.70
2023-05-09T03:27:43.407Z,13.80
2023-05-09T03:28:43.301Z,13.10
2023-05-09T03:29:43.280Z,14.00
2023-05-09T03:30:43.476Z,14.60
2023-05-09T03:31:43.470Z,14.30
2023-05-09T03:32:43.389Z,13.90
2023-05-09T03:33:43.374Z,12.60
2023-05-09T03:34:43.287Z,13.60
2023-05-09T03:35:43.258Z,13.90
2023-05-09T03:36:43.386Z,13.70
2023-05-09T03:37:43.324Z,13.30
2023-05-09T03:38:43.474Z,14.10
2023-05-09T03:39:43.307Z,13.80
2023-05-09T03:40:43.309Z,13.40
2023-05-09T03:41:43.248Z,12.70
2023-05-09T03:42:43.256Z,13.50
2023-05-09T03:43:43.320Z,13.90
2023-05-09T03:44:43.533Z,12.90
2023-05-09T03:45:43.268Z,12.40
2023-05-09T03:46:43.144Z,12.10
2023-05-09T03:47:43.566Z,12.70
2023-05-09T03:48:43.144Z,12.90
2023-05-09T03:49:43.499Z,13.00
2023-05-09T03:50:43.162Z,12.60
2023-05-09T03:51:43.144Z,13.20
2023-05-09T03:52:43.898Z,12.40
2023-05-09T03:53:43.122Z,14.60
2023-05-09T03:54:43.116Z,11.90
2023-05-09T03:55:43.153Z,15.40
2023-05-09T03:56:44.059Z,12.40
2023-05-09T03:57:43.009Z,12.30
2023-05-09T03:58:43.085Z,12.80
2023-05-09T03:59:43.200Z,13.20
2023-05-09T04:00:43.003Z,13.60
2023-05-09T04:01:43.152Z,14.50
2023-05-09T04:02:43.105Z,13.20
2023-05-09T04:03:43.036Z,13.40
2023-05-09T04:04:42.980Z,15.10
2023-05-09T04:05:43.027Z,15.00
2023-05-09T04:06:43.055Z,13.30
2023-05-09T04:07:43.893Z,12.00
2023-05-09T04:08:42.974Z,18.00
2023-05-09T04:09:43.020Z,14.20
2023-05-09T04:10:42.886Z,14.70
2023-05-09T04:11:42.867Z,13.60
2023-05-09T04:12:42.906Z,12.80
2023-05-09T04:13:43.121Z,13.00
2023-05-09T04:14:42.948Z,14.80
2023-05-09T04:15:42.838Z,18.90
2023-05-09T04:16:42.886Z,14.40
2023-05-09T04:17:42.911Z,14.20
2023-05-09T04:18:43.025Z,12.90
2023-05-09T04:19:43.055Z,13.20
2023-05-09T04:20:42.816Z,16.70
2023-05-09T04:21:42.780Z,13.90
2023-05-09T04:22:44.396Z,15.80
2023-05-09T04:23:42.858Z,17.70
2023-05-09T04:24:42.713Z,13.00
2023-05-09T04:25:42.703Z,13.90
2023-05-09T04:26:42.731Z,14.30
2023-05-09T04:27:42.718Z,16.20
2023-05-09T04:28:42.662Z,11.70
2023-05-09T04:29:42.634Z,14.70
2023-05-09T04:30:42.650Z,16.70
2023-05-09T04:31:42.780Z,12.60
2023-05-09T04:32:42.670Z,14.80
2023-05-09T04:33:42.592Z,16.10
2023-05-09T04:34:42.627Z,14.50
2023-05-09T04:35:42.577Z,12.70
2023-05-09T04:36:42.641Z,13.40
2023-05-09T04:37:42.634Z,18.20
2023-05-09T04:38:42.568Z,15.80
2023-05-09T04:39:42.551Z,13.50
2023-05-09T04:40:42.570Z,14.30
2023-05-09T04:41:42.509Z,12.80
2023-05-09T04:42:42.506Z,14.00
2023-05-09T04:43:42.508Z,14.20
2023-05-09T04:44:42.523Z,14.90
2023-05-09T04:45:42.494Z,15.20
2023-05-09T04:46:42.574Z,12.70
2023-05-09T04:47:42.542Z,14.40
2023-05-09T04:48:42.504Z,19.80
2023-05-09T04:49:42.439Z,14.40
2023-05-09T04:50:42.514Z,14.30
2023-05-09T04:51:42.420Z,15.00
2023-05-09T04:52:42.438Z,18.90
2023-05-09T04:53:42.414Z,14.90
2023-05-09T04:54:42.389Z,16.90
2023-05-09T04:55:42.378Z,15.60
2023-05-09T04:56:42.374Z,15.20
2023-05-09T04:57:42.398Z,14.00
2023-05-09T04:58:42.346Z,14.30
2023-05-09T04:59:42.317Z,15.30
2023-05-09T05:00:42.352Z,15.10
2023-05-09T05:01:42.620Z,15.90
2023-05-09T05:02:42.344Z,14.30
2023-05-09T05:03:42.413Z,14.90
2023-05-09T05:04:42.340Z,15.70
2023-05-09T05:05:42.314Z,15.80
2023-05-09T05:06:42.250Z,13.90
2023-05-09T05:07:42.262Z,17.70
2023-05-09T05:08:43.166Z,13.00
2023-05-09T05:09:42.213Z,13.30
2023-05-09T05:10:42.245Z,12.60
2023-05-09T05:11:53.226Z,15.60
2023-05-09T05:12:42.210Z,13.60
2023-05-09T05:13:42.189Z,17.10
2023-05-09T05:14:42.200Z,16.00
2023-05-09T05:15:42.220Z,14.40
2023-05-09T05:16:42.200Z,15.50
2023-05-09T05:17:42.218Z,14.60
2023-05-09T05:18:42.128Z,15.00
2023-05-09T05:19:42.117Z,13.80
2023-05-09T05:20:42.140Z,14.90
2023-05-09T05:21:42.098Z,20.60
2023-05-09T05:22:42.108Z,16.20
2023-05-09T05:23:42.068Z,13.00
2023-05-09T05:24:42.062Z,16.90
2023-05-09T05:25:42.121Z,17.10
2023-05-09T05:26:42.080Z,15.60
2023-05-09T05:27:42.083Z,15.00
2023-05-09T05:28:42.067Z,18.50
2023-05-09T05:29:41.996Z,17.10
2023-05-09T05:30:42.054Z,14.60
2023-05-09T05:31:42.049Z,15.30
2023-05-09T05:32:42.032Z,13.30
2023-05-09T05:33:42.027Z,13.10
2023-05-09T05:34:42.001Z,16.00
2023-05-09T05:35:41.934Z,15.90
2023-05-09T05:36:41.949Z,14.90
2023-05-09T05:37:41.946Z,12.80
2023-05-09T05:38:41.929Z,14.50
2023-05-09T05:39:41.944Z,14.30
2023-05-09T05:40:41.932Z,14.00
2023-05-09T05:41:41.862Z,15.70
2023-05-09T05:42:41.859Z,18.50
2023-05-09T05:43:41.885Z,19.80
2023-05-09T05:44:41.910Z,16.00
2023-05-09T05:45:41.881Z,15.50
2023-05-09T05:46:41.860Z,16.40
2023-05-09T05:47:41.836Z,17.50
2023-05-09T05:48:41.798Z,18.90
2023-05-09T05:49:41.803Z,14.90
2023-05-09T05:50:41.789Z,12.40
2023-05-09T05:51:41.838Z,15.70
2023-05-09T05:52:41.770Z,14.20
2023-05-09T05:53:41.745Z,12.90
2023-05-09T05:54:41.768Z,17.10
2023-05-09T05:55:41.709Z,15.70
2023-05-09T05:56:41.723Z,15.80
2023-05-09T05:57:41.715Z,13.20
2023-05-09T05:58:41.692Z,15.70
2023-05-09T05:59:41.668Z,20.50
2023-05-09T06:00:41.702Z,14.30
2023-05-09T06:01:41.758Z,15.20
2023-05-09T06:02:41.751Z,12.10
2023-05-09T06:03:41.703Z,13.70
2023-05-09T06:04:41.671Z,15.10
2023-05-09T06:05:41.599Z,15.50
2023-05-09T06:06:41.639Z,17.60
2023-05-09T06:07:41.589Z,13.80
2023-05-09T06:08:41.622Z,18.50
2023-05-09T06:09:41.615Z,14.00
2023-05-09T06:10:41.613Z,14.20
2023-05-09T06:11:41.561Z,13.30
2023-05-09T06:12:41.594Z,13.90
2023-05-09T06:13:41.559Z,18.00
2023-05-09T06:14:41.534Z,12.90
2023-05-09T06:15:41.514Z,12.60
2023-05-09T06:16:41.574Z,13.10
2023-05-09T06:17:41.503Z,14.10
2023-05-09T06:18:41.482Z,13.30
2023-05-09T06:19:41.473Z,15.40
2023-05-09T06:20:41.455Z,18.50
2023-05-09T06:21:41.505Z,14.80
2023-05-09T06:22:41.463Z,12.10
2023-05-09T06:23:57.089Z,12.30
2023-05-09T06:24:41.482Z,12.30
2023-05-09T06:25:41.397Z,16.60
2023-05-09T06:26:41.412Z,15.70
2023-05-09T06:27:41.386Z,11.70
2023-05-09T06:28:41.457Z,12.30
2023-05-09T06:29:41.374Z,15.50
2023-05-09T06:30:41.410Z,15.50
2023-05-09T06:31:41.375Z,12.70
2023-05-09T06:32:41.403Z,13.00
2023-05-09T06:33:41.383Z,12.80
2023-05-09T06:34:41.311Z,12.10
2023-05-09T06:35:41.290Z,16.70
2023-05-09T06:36:41.602Z,12.50
2023-05-09T06:37:41.276Z,11.60
2023-05-09T06:38:41.372Z,16.50
2023-05-09T06:39:41.294Z,13.00
2023-05-09T06:40:41.241Z,12.20
2023-05-09T06:41:41.466Z,12.70
2023-05-09T06:42:41.230Z,11.50
2023-05-09T06:43:41.210Z,11.70
2023-05-09T06:44:41.241Z,13.10
2023-05-09T06:45:41.212Z,14.80
2023-05-09T06:46:41.274Z,11.20
2023-05-09T06:47:41.228Z,13.10
2023-05-09T06:48:41.174Z,11.10
2023-05-09T06:49:41.150Z,12.80
2023-05-09T06:50:41.161Z,12.50
2023-05-09T06:51:41.166Z,16.80
2023-05-09T06:52:41.131Z,11.10
2023-05-09T06:53:41.101Z,14.30
2023-05-09T06:54:41.171Z,12.20
2023-05-09T06:55:41.104Z,10.80
2023-05-09T06:56:41.081Z,10.60
2023-05-09T06:57:41.070Z,13.30
2023-05-09T06:58:41.144Z,11.90
2023-05-09T06:59:41.048Z,10.70
2023-05-09T07:00:41.099Z,12.20
2023-05-09T07:01:41.166Z,11.50
2023-05-09T07:02:41.049Z,11.40
2023-05-09T07:03:41.048Z,12.80
2023-05-09T07:04:41.032Z,11.50
2023-05-09T07:05:40.985Z,9.90
2023-05-09T07:06:41.078Z,10.80
2023-05-09T07:07:40.967Z,11.30
2023-05-09T07:08:40.995Z,11.00
2023-05-09T07:09:40.945Z,12.20
2023-05-09T07:10:40.948Z,14.50
2023-05-09T07:11:40.956Z,14.00
2023-05-09T07:12:40.943Z,11.00
2023-05-09T07:13:40.967Z,10.20
2023-05-09T07:14:41.001Z,14.70
2023-05-09T07:15:42.709Z,12.70
2023-05-09T07:16:40.941Z,11.00
2023-05-09T07:17:40.928Z,10.50
2023-05-09T07:18:40.874Z,12.40
2023-05-09T07:19:40.833Z,11.30
2023-05-09T07:20:40.813Z,10.30
2023-05-09T07:21:40.895Z,10.90
2023-05-09T07:22:40.901Z,11.50
2023-05-09T07:23:40.784Z,11.40
2023-05-09T07:24:40.781Z,10.30
2023-05-09T07:25:40.782Z,9.60
2023-05-09T07:26:40.763Z,11.10
2023-05-09T07:27:40.787Z,11.60
2023-05-09T07:28:40.756Z,11.70
2023-05-09T07:29:40.725Z,12.50
2023-05-09T07:30:40.779Z,10.80
2023-05-09T07:31:40.768Z,12.40
2023-05-09T07:32:40.752Z,11.90
2023-05-09T07:33:40.709Z,13.00
2023-05-09T07:34:40.701Z,12.20
2023-05-09T07:35:40.689Z,9.30
2023-05-09T07:36:40.658Z,9.30
2023-05-09T07:37:40.636Z,11.40
2023-05-09T07:38:40.674Z,11.30
2023-05-09T07:39:40.651Z,10.30
2023-05-09T07:40:40.602Z,11.20
2023-05-09T07:41:40.611Z,11.20
2023-05-09T07:42:40.620Z,14.20
2023-05-09T07:43:40.595Z,11.20
2023-05-09T07:44:40.571Z,10.80
2023-05-09T07:45:40.573Z,11.00
2023-05-09T07:46:40.541Z,10.20
2023-05-09T07:47:40.567Z,12.30
2023-05-09T07:48:40.518Z,10.20
2023-05-09T07:49:40.512Z,9.70
2023-05-09T07:50:40.532Z,12.50
2023-05-09T07:51:40.499Z,11.00
2023-05-09T07:52:40.498Z,9.70
2023-05-09T07:53:40.443Z,9.50
2023-05-09T07:54:40.451Z,8.70
2023-05-09T07:55:40.450Z,8.80
2023-05-09T07:56:40.467Z,10.30
2023-05-09T07:57:40.422Z,9.10
2023-05-09T07:58:40.431Z,9.50
2023-05-09T07:59:40.443Z,9.00
2023-05-09T08:00:40.370Z,9.00
2023-05-09T08:01:40.422Z,9.40
2023-05-09T08:02:40.556Z,12.40
2023-05-09T08:03:40.417Z,11.00
2023-05-09T08:04:40.390Z,9.40
2023-05-09T08:05:40.377Z,9.50
2023-05-09T08:06:40.315Z,11.10
2023-05-09T08:07:40.312Z,10.50
2023-05-09T08:08:40.332Z,9.30
2023-05-09T08:09:40.317Z,9.60
2023-05-09T08:10:40.257Z,9.50
2023-05-09T08:11:40.274Z,9.80
2023-05-09T08:12:40.294Z,9.60
2023-05-09T08:13:40.278Z,9.20
2023-05-09T08:14:40.263Z,8.30
2023-05-09T08:15:40.270Z,8.00
2023-05-09T08:16:40.374Z,9.30
2023-05-09T08:17:40.317Z,10.60
2023-05-09T08:18:40.249Z,9.50
2023-05-09T08:19:40.196Z,8.50
2023-05-09T08:20:40.185Z,8.00
2023-05-09T08:21:40.174Z,10.70
2023-05-09T08:22:40.175Z,7.40
2023-05-09T08:23:40.141Z,14.10
2023-05-09T08:24:40.142Z,8.10
2023-05-09T08:25:40.141Z,9.60
2023-05-09T08:26:40.191Z,9.00
2023-05-09T08:27:40.122Z,9.60
2023-05-09T08:28:40.120Z,9.70
2023-05-09T08:29:40.121Z,11.00
2023-05-09T08:30:40.058Z,9.50
2023-05-09T08:31:40.185Z,10.20
2023-05-09T08:32:40.098Z,9.40
2023-05-09T08:33:41.821Z,8.00
2023-05-09T08:34:40.113Z,9.10
2023-05-09T08:35:40.054Z,7.90
2023-05-09T08:36:40.014Z,8.10
2023-05-09T08:37:40.021Z,9.40
2023-05-09T08:38:39.996Z,9.40
2023-05-09T08:39:40.002Z,11.00
2023-05-09T08:40:39.996Z,11.20
2023-05-09T08:41:39.957Z,12.10
2023-05-09T08:42:39.988Z,8.30
2023-05-09T08:43:39.971Z,10.80
2023-05-09T08:44:39.953Z,9.30
2023-05-09T08:45:39.911Z,12.00
2023-05-09T08:46:39.974Z,11.30
2023-05-09T08:47:39.917Z,10.60
2023-05-09T08:48:39.896Z,11.50
2023-05-09T08:49:39.887Z,11.90
2023-05-09T08:50:39.860Z,12.90
2023-05-09T08:51:39.854Z,12.20
2023-05-09T08:52:39.866Z,13.60
2023-05-09T08:53:39.841Z,10.80
2023-05-09T08:54:39.858Z,11.20
2023-05-09T08:55:39.820Z,9.50
2023-05-09T08:56:39.808Z,13.30
2023-05-09T08:57:39.794Z,9.40
2023-05-09T08:58:39.755Z,10.10
2023-05-09T08:59:40.128Z,15.70
2023-05-09T09:00:39.742Z,9.60
2023-05-09T09:01:39.807Z,9.20
2023-05-09T09:02:39.831Z,9.90
2023-05-09T09:03:39.723Z,10.70
2023-05-09T09:04:39.742Z,10.50
2023-05-09T09:05:42.371Z,11.30
2023-05-09T09:06:39.688Z,11.60
2023-05-09T09:07:39.680Z,10.60
2023-05-09T09:08:39.684Z,11.80
2023-05-09T09:09:39.665Z,11.50
2023-05-09T09:10:39.678Z,10.20
2023-05-09T09:11:39.681Z,11.70
2023-05-09T09:12:39.760Z,12.80
2023-05-09T09:13:39.608Z,11.50
2023-05-09T09:14:39.604Z,10.40
2023-05-09T09:15:39.599Z,10.00
2023-05-09T09:16:39.618Z,11.40
2023-05-09T09:17:39.588Z,9.50
2023-05-09T09:18:40.047Z,9.30
2023-05-09T09:19:39.566Z,12.80
2023-05-09T09:20:39.586Z,9.50
2023-05-09T09:21:39.551Z,10.60
2023-05-09T09:22:39.548Z,8.80
2023-05-09T09:23:39.502Z,9.50
2023-05-09T09:24:39.493Z,9.90
2023-05-09T09:25:39.519Z,8.80
2023-05-09T09:26:39.486Z,9.40
2023-05-09T09:27:39.496Z,10.20
2023-05-09T09:28:39.534Z,8.40
2023-05-09T09:29:39.475Z,9.40
2023-05-09T09:30:39.485Z,9.30
2023-05-09T09:31:39.529Z,13.10
2023-05-09T09:32:39.572Z,9.70
2023-05-09T09:33:39.587Z,8.50
2023-05-09T09:34:39.417Z,8.50
2023-05-09T09:35:39.446Z,8.60
2023-05-09T09:36:39.428Z,10.10
2023-05-09T09:37:39.744Z,9.00
2023-05-09T09:38:39.366Z,9.70
2023-05-09T09:39:39.418Z,9.30
2023-05-09T09:40:39.342Z,9.10
2023-05-09T09:41:39.412Z,9.20
2023-05-09T09:42:39.360Z,13.30
2023-05-09T09:43:39.595Z,12.10
2023-05-09T09:44:39.330Z,10.20
2023-05-09T09:45:39.413Z,9.40
2023-05-09T09:46:39.509Z,9.00
2023-05-09T09:47:40.199Z,9.40
2023-05-09T09:48:39.301Z,7.90
2023-05-09T09:49:39.356Z,9.80
2023-05-09T09:50:39.376Z,9.10
2023-05-09T09:51:39.483Z,8.20
2023-05-09T09:52:39.233Z,10.10
2023-05-09T09:53:39.388Z,10.60
2023-05-09T09:54:39.216Z,10.10
2023-05-09T09:55:39.234Z,9.40
2023-05-09T09:56:39.520Z,7.80
2023-05-09T09:57:39.250Z,9.10
2023-05-09T09:58:39.323Z,10.90
2023-05-09T09:59:40.016Z,9.70
2023-05-09T10:00:39.126Z,12.30
2023-05-09T10:01:40.041Z,9.90
2023-05-09T10:02:39.486Z,8.00
2023-05-09T10:03:39.275Z,10.90
2023-05-09T10:04:39.322Z,13.10
2023-05-09T10:05:39.294Z,9.10
2023-05-09T10:06:39.064Z,12.70
2023-05-09T10:07:39.055Z,9.60
2023-05-09T10:08:39.209Z,10.40
2023-05-09T10:09:39.334Z,8.70
2023-05-09T10:10:39.141Z,8.50
2023-05-09T10:11:39.110Z,9.20
2023-05-09T10:12:39.150Z,10.60
2023-05-09T10:13:39.094Z,9.60
2023-05-09T10:14:39.308Z,12.00
2023-05-09T10:15:52.112Z,8.80
2023-05-09T10:16:43.547Z,9.40
2023-05-09T10:17:39.092Z,10.40
2023-05-09T10:18:39.051Z,9.30
2023-05-09T10:19:38.963Z,8.60
2023-05-09T10:20:38.905Z,11.50
2023-05-09T10:21:38.890Z,12.40
2023-05-09T10:22:38.884Z,9.50
2023-05-09T10:23:39.243Z,11.10
2023-05-09T10:24:38.866Z,8.80
2023-05-09T10:25:38.872Z,10.40
2023-05-09T10:26:38.850Z,10.20
2023-05-09T10:27:38.843Z,7.70
2023-05-09T10:28:39.742Z,8.20
2023-05-09T10:29:38.972Z,8.70
2023-05-09T10:30:38.781Z,10.40
2023-05-09T10:31:38.868Z,11.20
2023-05-09T10:32:38.886Z,9.30
2023-05-09T10:33:38.792Z,9.70
2023-05-09T10:34:38.837Z,10.20
2023-05-09T10:35:38.780Z,10.10
2023-05-09T10:36:38.755Z,8.90
2023-05-09T10:37:38.778Z,7.70
2023-05-09T10:38:38.729Z,9.80
2023-05-09T10:39:38.788Z,9.10
2023-05-09T10:40:38.697Z,10.20
2023-05-09T10:41:38.726Z,9.70
2023-05-09T10:42:38.742Z,8.40
2023-05-09T10:43:38.655Z,11.10
2023-05-09T10:44:38.718Z,8.70
2023-05-09T10:45:38.740Z,8.70
2023-05-09T10:46:38.722Z,10.00
2023-05-09T10:47:38.751Z,8.70
2023-05-09T10:48:38.735Z,11.20
2023-05-09T10:49:38.613Z,9.20
2023-05-09T10:50:38.650Z,8.60
2023-05-09T10:51:38.587Z,7.40
2023-05-09T10:52:38.603Z,10.20
2023-05-09T10:53:38.594Z,9.40
2023-05-09T10:54:38.620Z,7.70
2023-05-09T10:55:38.592Z,10.10
2023-05-09T10:56:38.533Z,8.20
2023-05-09T10:57:38.605Z,6.90
2023-05-09T10:58:38.581Z,9.00
2023-05-09T10:59:38.503Z,8.80
2023-05-09T11:00:38.513Z,7.90
2023-05-09T11:01:38.576Z,8.20
2023-05-09T11:02:38.507Z,11.20
2023-05-09T11:03:38.560Z,9.80
2023-05-09T11:04:38.462Z,9.00
2023-05-09T11:05:38.480Z,9.30
2023-05-09T11:06:38.465Z,9.10
2023-05-09T11:07:38.449Z,7.00
2023-05-09T11:08:38.392Z,7.80
2023-05-09T11:09:38.402Z,7.00
2023-05-09T11:10:38.387Z,8.70
2023-05-09T11:11:38.468Z,9.60
2023-05-09T11:12:38.349Z,7.40
2023-05-09T11:13:38.388Z,7.90
2023-05-09T11:14:38.347Z,10.80
2023-05-09T11:15:38.393Z,7.80
2023-05-09T11:16:38.385Z,8.30
2023-05-09T11:17:38.412Z,10.50
2023-05-09T11:18:38.304Z,10.10
2023-05-09T11:19:38.346Z,12.40
2023-05-09T11:20:38.294Z,8.80
2023-05-09T11:21:38.271Z,9.10
2023-05-09T11:22:38.255Z,10.30
2023-05-09T11:23:38.265Z,7.90
2023-05-09T11:24:38.234Z,9.00
2023-05-09T11:25:38.210Z,9.00
2023-05-09T11:26:38.214Z,8.40
2023-05-09T11:27:38.226Z,8.10
2023-05-09T11:28:38.194Z,9.10
2023-05-09T11:29:38.230Z,9.40
2023-05-09T11:30:38.302Z,13.00
2023-05-09T11:31:38.249Z,8.40
2023-05-09T11:32:38.230Z,9.00
2023-05-09T11:33:38.164Z,7.50
2023-05-09T11:34:38.126Z,7.70
2023-05-09T11:35:38.151Z,9.90
2023-05-09T11:36:38.140Z,13.00
2023-05-09T11:37:38.079Z,9.00
2023-05-09T11:38:38.092Z,7.50
2023-05-09T11:39:38.103Z,13.20
2023-05-09T11:40:38.087Z,8.90
2023-05-09T11:41:38.077Z,10.50
2023-05-09T11:42:38.187Z,8.00
2023-05-09T11:43:38.115Z,9.70
2023-05-09T11:44:38.027Z,9.70
2023-05-09T11:45:38.117Z,10.50
2023-05-09T11:46:38.053Z,9.50
2023-05-09T11:47:38.023Z,9.40
2023-05-09T11:48:37.963Z,12.90
2023-05-09T11:49:37.964Z,12.20
2023-05-09T11:50:37.989Z,10.80
2023-05-09T11:51:38.011Z,13.90
2023-05-09T11:52:37.962Z,9.50
2023-05-09T11:53:37.992Z,10.60
2023-05-09T11:54:37.901Z,8.50
2023-05-09T11:55:37.902Z,9.20
2023-05-09T11:56:37.954Z,8.70
2023-05-09T11:57:37.895Z,14.10
2023-05-09T11:58:37.979Z,10.00
2023-05-09T11:59:37.918Z,10.40
2023-05-09T12:00:37.836Z,8.50
2023-05-09T12:01:37.837Z,8.70
2023-05-09T12:02:37.949Z,9.30
2023-05-09T12:03:37.928Z,12.40
2023-05-09T12:04:37.926Z,7.50
2023-05-09T12:05:37.813Z,10.90
2023-05-09T12:06:37.858Z,10.20
2023-05-09T12:07:37.769Z,10.10
2023-05-09T12:08:37.759Z,10.90
2023-05-09T12:09:37.784Z,10.30
2023-05-09T12:10:37.777Z,8.50
2023-05-09T12:11:37.802Z,10.40
2023-05-09T12:12:37.745Z,9.90
2023-05-09T12:13:37.703Z,10.80
2023-05-09T12:14:37.716Z,13.00
2023-05-09T12:15:38.023Z,8.90
2023-05-09T12:16:37.849Z,7.90
2023-05-09T12:17:37.736Z,9.10
2023-05-09T12:18:37.905Z,9.70
2023-05-09T12:19:37.649Z,10.50
2023-05-09T12:20:37.642Z,9.30
2023-05-09T12:21:37.804Z,11.70
2023-05-09T12:22:37.701Z,8.10
2023-05-09T12:23:37.596Z,9.90
2023-05-09T12:24:37.784Z,8.30
2023-05-09T12:25:37.567Z,8.20
2023-05-09T12:26:37.586Z,9.20
2023-05-09T12:27:37.577Z,9.30
2023-05-09T12:28:37.542Z,9.50
2023-05-09T12:29:37.583Z,10.10
2023-05-09T12:30:37.891Z,7.20
2023-05-09T12:31:37.555Z,8.10
2023-05-09T12:32:37.621Z,8.70
2023-05-09T12:33:37.515Z,7.80
2023-05-09T12:34:37.503Z,9.10
2023-05-09T12:35:37.602Z,8.70
2023-05-09T12:36:37.601Z,9.90
2023-05-09T12:37:37.457Z,13.20
2023-05-09T12:38:37.440Z,10.10
2023-05-09T12:39:37.740Z,8.20
2023-05-09T12:40:37.449Z,8.40
2023-05-09T12:41:46.765Z,8.60
2023-05-09T12:42:37.446Z,7.80
2023-05-09T12:43:37.660Z,9.00
2023-05-09T12:44:37.375Z,10.00
2023-05-09T12:45:37.395Z,7.70
2023-05-09T12:46:38.321Z,7.00
2023-05-09T12:47:37.454Z,8.50
2023-05-09T12:48:37.355Z,11.50
2023-05-09T12:49:37.490Z,12.50
2023-05-09T12:50:37.374Z,10.60
2023-05-09T12:51:37.612Z,10.40
2023-05-09T12:52:44.000Z,10.10
2023-05-09T12:53:37.291Z,10.30
2023-05-09T12:54:37.274Z,7.90
2023-05-09T12:55:37.322Z,13.50
2023-05-09T12:56:37.241Z,7.60
2023-05-09T12:57:37.276Z,9.50
2023-05-09T12:58:37.258Z,11.40
2023-05-09T12:59:37.220Z,8.70
2023-05-09T13:00:37.305Z,13.10
2023-05-09T13:01:37.209Z,11.80
2023-05-09T13:02:37.266Z,10.10
2023-05-09T13:03:37.272Z,9.90
2023-05-09T13:04:37.208Z,12.10
2023-05-09T13:05:37.265Z,12.70
2023-05-09T13:06:37.147Z,12.00